Time;durP1;ratioP1;P1;durP2;ratioP2;P2;SDS_P1;SDS_P2;PMS_P1;PMS_P2;Temp;Humidity;BMP_temperature;BMP_pressure;BME280_temperature;BME280_humidity;BME280_pressure;Samples;Min_cycle;Max_cycle;Signal;HPM_P1;HPM_P2
2022/09/24 00:01:20;;;;;;;32.88;23.80;;;;;;;12.32;100.00;101309.06;6096988;23;20066;-80
2022/09/24 00:03:59;;;;;;;35.33;23.38;;;;;;;12.29;100.00;101310.09;6097135;23;20475;-82
2022/09/24 00:06:26;;;;;;;33.10;23.52;;;;;;;12.26;100.00;101312.03;6096825;23;20009;-80
2022/09/24 00:08:56;;;;;;;31.48;22.88;;;;;;;12.19;100.00;101301.25;6096877;23;20429;-81
2022/09/24 00:11:27;;;;;;;34.00;23.63;;;;;;;11.91;100.00;101258.09;6096751;23;20337;-81
2022/09/24 00:13:54;;;;;;;29.17;21.10;;;;;;;12.20;100.00;101302.91;6097157;23;20068;-81
2022/09/24 00:16:22;;;;;;;31.17;21.95;;;;;;;12.17;100.00;101302.25;6097007;23;20337;-80
2022/09/24 00:18:47;;;;;;;31.00;21.35;;;;;;;12.14;100.00;101303.28;6096863;23;20007;-81
2022/09/24 00:21:25;;;;;;;31.20;21.75;;;;;;;12.15;100.00;101293.75;6096840;23;20007;-81
2022/09/24 00:23:53;;;;;;;31.77;21.35;;;;;;;11.99;100.00;101270.56;6096989;23;20061;-82
2022/09/24 00:29:03;;;;;;;31.05;20.67;;;;;;;11.99;100.00;101273.13;6096948;23;20021;-80
2022/09/24 00:31:30;;;;;;;28.80;20.88;;;;;;;12.03;100.00;101279.81;6096785;23;20010;-81
2022/09/24 00:33:57;;;;;;;27.67;19.73;;;;;;;12.04;100.00;101277.13;6096689;23;20477;-81
2022/09/24 00:36:22;;;;;;;26.38;18.92;;;;;;;12.11;100.00;101282.75;6096961;23;20333;-81
2022/09/24 00:38:50;;;;;;;27.15;18.75;;;;;;;12.05;100.00;101277.94;6096876;23;20005;-80
2022/09/24 00:41:16;;;;;;;26.42;18.85;;;;;;;12.02;100.00;101272.97;6096621;23;20006;-79
2022/09/24 00:43:41;;;;;;;26.55;17.80;;;;;;;12.09;100.00;101284.59;6071199;23;20002;-78
2022/09/24 00:46:07;;;;;;;23.40;17.45;;;;;;;12.10;100.00;101275.91;6096724;23;20017;-79
2022/09/24 00:48:33;;;;;;;28.67;18.67;;;;;;;11.87;100.00;101232.50;6096750;23;20025;-81
2022/09/24 00:51:00;;;;;;;25.30;17.67;;;;;;;12.10;100.00;101268.16;6096896;23;20086;-80
2022/09/24 00:53:30;;;;;;;27.63;18.60;;;;;;;12.04;100.00;101251.22;6096817;23;20014;-76
2022/09/24 00:55:57;;;;;;;25.38;17.77;;;;;;;12.03;100.00;101252.16;6096753;23;20077;-77
2022/09/24 00:58:23;;;;;;;24.42;17.30;;;;;;;12.16;100.00;101272.94;6071341;23;20010;-77
2022/09/24 01:00:53;;;;;;;25.92;17.95;;;;;;;12.12;100.00;101262.88;6096677;23;20254;-78
2022/09/24 01:03:22;;;;;;;28.75;20.38;;;;;;;12.00;100.00;101249.78;6096456;23;20014;-79
2022/09/24 01:05:48;;;;;;;27.40;18.65;;;;;;;12.11;100.00;101267.22;6096755;23;20006;-79
2022/09/24 01:08:16;;;;;;;27.35;19.27;;;;;;;12.09;100.00;101258.69;6097103;23;20037;-78
2022/09/24 01:10:47;;;;;;;26.40;19.10;;;;;;;12.10;100.00;101260.38;6096447;23;20007;-75
2022/09/24 01:13:33;;;;;;;24.35;18.38;;;;;;;12.14;100.00;101263.59;6096633;23;20053;-80
2022/09/24 01:16:07;;;;;;;26.23;18.20;;;;;;;11.96;100.00;101222.41;6096721;23;20006;-80
2022/09/24 01:18:40;;;;;;;26.70;18.42;;;;;;;12.03;100.00;101228.03;6096459;23;20003;-77
2022/09/24 01:21:27;;;;;;;26.45;18.17;;;;;;;12.15;100.00;101240.22;6097030;23;20007;-77
2022/09/24 01:24:04;;;;;;;25.60;18.20;;;;;;;12.00;100.00;101221.31;6096525;23;20011;-80
2022/09/24 01:26:35;;;;;;;26.42;17.13;;;;;;;12.12;100.00;101240.41;6096505;23;20002;-80
2022/09/24 01:29:22;;;;;;;27.35;18.52;;;;;;;12.15;100.00;101236.78;6096688;23;20003;-78
2022/09/24 01:31:54;;;;;;;25.45;17.45;;;;;;;11.97;100.00;101216.28;6096470;23;19999;-81
2022/09/24 01:34:28;;;;;;;23.92;16.98;;;;;;;11.95;100.00;101212.16;6096498;23;20006;-77
2022/09/24 01:36:56;;;;;;;23.83;17.08;;;;;;;11.98;100.00;101217.13;6071411;23;20018;-77
2022/09/24 01:39:22;;;;;;;23.67;16.52;;;;;;;12.10;100.00;101226.72;6098840;23;20337;-79
2022/09/24 01:41:49;;;;;;;25.65;17.27;;;;;;;11.87;100.00;101191.09;6098495;23;20006;-77
2022/09/24 01:44:17;;;;;;;24.75;17.95;;;;;;;11.95;100.00;101200.03;6098708;23;20340;-79
2022/09/24 01:46:43;;;;;;;23.00;16.08;;;;;;;12.11;100.00;101230.97;6098237;23;20114;-78
2022/09/24 01:49:08;;;;;;;22.88;16.88;;;;;;;12.14;100.00;101224.78;6098181;23;20042;-80
2022/09/24 01:51:42;;;;;;;23.98;16.48;;;;;;;11.94;100.00;101192.38;6098648;23;20006;-78
2022/09/24 01:54:16;;;;;;;22.98;15.98;;;;;;;12.17;100.00;101224.56;6098562;23;20328;-77
2022/09/24 01:56:50;;;;;;;22.63;15.85;;;;;;;12.11;100.00;101215.44;6098403;23;20006;-79
2022/09/24 01:59:23;;;;;;;23.00;16.52;;;;;;;12.13;100.00;101215.34;6098017;23;20002;-79
2022/09/24 02:01:55;;;;;;;23.75;16.13;;;;;;;12.17;100.00;101219.41;6098500;23;20325;-76
2022/09/24 02:04:24;;;;;;;20.05;14.82;;;;;;;12.06;100.00;101196.78;6098121;23;20061;-78
2022/09/24 02:06:55;;;;;;;22.88;15.82;;;;;;;12.13;100.00;101205.81;6098199;23;20006;-78
2022/09/24 02:09:37;;;;;;;23.73;15.80;;;;;;;12.19;100.00;101209.75;6098198;23;20029;-78
2022/09/24 02:12:15;;;;;;;21.95;16.30;;;;;;;12.14;100.00;101206.66;6097964;23;20077;-81
2022/09/24 02:14:50;;;;;;;23.08;16.30;;;;;;;12.15;100.00;101205.72;6097944;23;20007;-78
2022/09/24 02:17:16;;;;;;;24.02;16.25;;;;;;;12.19;100.00;101209.75;6098051;23;20007;-79
2022/09/24 02:19:43;;;;;;;23.98;16.50;;;;;;;12.14;100.00;101204.06;6098305;23;20008;-79
2022/09/24 02:22:12;;;;;;;22.77;16.55;;;;;;;12.17;100.00;101212.44;6097926;23;20424;-78
2022/09/24 02:24:47;;;;;;;24.58;16.02;;;;;;;12.21;100.00;101205.34;6098304;23;20329;-79
2022/09/24 02:27:12;;;;;;;23.65;16.85;;;;;;;12.19;100.00;101205.44;6097598;23;20314;-80
2022/09/24 02:29:38;;;;;;;23.60;17.30;;;;;;;12.21;100.00;101200.16;6097952;23;20085;-78
2022/09/24 02:32:06;;;;;;;23.58;16.88;;;;;;;11.95;100.00;101168.16;6097935;23;20026;-78
2022/09/24 02:34:40;;;;;;;24.20;16.83;;;;;;;12.12;100.00;101191.22;6097632;23;20463;-79
2022/09/24 02:37:08;;;;;;;26.20;17.30;;;;;;;12.17;100.00;101196.09;6097885;23;20014;-78
2022/09/24 02:39:35;;;;;;;23.90;16.33;;;;;;;12.04;100.00;101180.50;6097743;23;20435;-79
2022/09/24 02:42:02;;;;;;;26.73;16.65;;;;;;;12.13;100.00;101194.63;6097522;23;20034;-79
2022/09/24 02:44:29;;;;;;;22.50;16.48;;;;;;;11.99;100.00;101167.84;6072251;23;20010;-79
2022/09/24 02:46:55;;;;;;;25.50;17.63;;;;;;;11.98;100.00;101167.94;6097767;23;20013;-79
2022/09/24 02:49:20;;;;;;;24.02;16.83;;;;;;;12.00;100.00;101179.88;6097308;23;20019;-79
2022/09/24 02:51:46;;;;;;;25.67;17.67;;;;;;;11.98;100.00;101173.97;6098120;23;20427;-79
2022/09/24 02:54:11;;;;;;;25.27;16.48;;;;;;;12.04;100.00;101193.47;6097524;23;20461;-77
2022/09/24 02:56:37;;;;;;;25.55;17.17;;;;;;;12.02;100.00;101183.22;6097711;23;20007;-77
2022/09/24 02:59:03;;;;;;;24.55;16.92;;;;;;;11.95;100.00;101171.56;6097388;23;20409;-77
2022/09/24 03:01:29;;;;;;;28.08;18.30;;;;;;;12.03;100.00;101186.63;6098013;23;20107;-77
2022/09/24 03:03:54;;;;;;;27.88;19.38;;;;;;;12.03;100.00;101178.84;6097632;23;20448;-77
2022/09/24 03:06:20;;;;;;;27.10;19.27;;;;;;;12.00;100.00;101181.66;6097560;23;20003;-79
2022/09/24 03:08:46;;;;;;;26.38;18.80;;;;;;;12.04;100.00;101185.69;6097402;23;20006;-79
2022/09/24 03:11:12;;;;;;;25.63;17.88;;;;;;;11.93;100.00;101163.09;6097249;23;20425;-79
2022/09/24 03:13:38;;;;;;;28.55;19.27;;;;;;;11.95;100.00;101152.63;6071808;23;20041;-79
2022/09/24 03:16:05;;;;;;;28.02;19.27;;;;;;;12.06;100.00;101174.31;6071894;23;20376;-77
2022/09/24 03:18:30;;;;;;;28.65;20.65;;;;;;;12.00;100.00;101160.94;6097771;23;20006;-78
2022/09/24 03:21:02;;;;;;;30.25;20.45;;;;;;;12.04;100.00;101164.97;6097703;23;20324;-77
2022/09/24 03:23:27;;;;;;;;;;;;;;;12.09;100.00;101168.09;6097683;23;20006;-78
2022/09/24 03:25:54;;;;;;;29.30;20.42;;;;;;;12.06;100.00;101168.31;6097353;23;19915;-79
2022/09/24 03:28:20;;;;;;;30.00;20.92;;;;;;;12.05;100.00;101167.47;6097515;23;20302;-77
2022/09/24 03:31:01;;;;;;;32.10;22.15;;;;;;;11.97;100.00;101151.59;6097336;23;20409;-77
2022/09/24 03:33:32;;;;;;;31.13;22.55;;;;;;;11.92;100.00;101140.72;6097519;23;20010;-80
2022/09/24 03:36:04;;;;;;;29.80;22.35;;;;;;;12.05;100.00;101167.47;6097216;23;20412;-78
2022/09/24 03:38:30;;;;;;;32.47;23.25;;;;;;;11.97;100.00;101145.59;6097052;23;20003;-78
2022/09/24 03:40:56;;;;;;;31.85;22.58;;;;;;;12.03;100.00;101160.75;6097315;23;20085;-79
2022/09/24 03:43:22;;;;;;;33.28;24.20;;;;;;;11.98;100.00;101153.25;6097117;23;20062;-79
2022/09/24 03:45:48;;;;;;;36.80;25.38;;;;;;;12.03;100.00;101158.16;6097227;23;20026;-78
2022/09/24 03:48:15;;;;;;;34.70;26.02;;;;;;;12.03;100.00;101160.75;6096894;23;20010;-78
2022/09/24 03:50:40;;;;;;;35.88;25.48;;;;;;;11.91;100.00;101144.25;6097240;23;20011;-77
2022/09/24 03:53:06;;;;;;;37.50;26.77;;;;;;;12.01;100.00;101150.50;6096993;23;20061;-79
2022/09/24 03:55:31;;;;;;;34.47;24.65;;;;;;;12.01;100.00;101153.06;6097247;23;20006;-80
2022/09/24 03:57:57;;;;;;;36.53;26.83;;;;;;;12.01;100.00;101153.06;6097317;23;19998;-81
2022/09/24 04:00:26;;;;;;;38.08;26.38;;;;;;;11.98;100.00;101153.25;6096518;23;20030;-81
2022/09/24 04:02:51;;;;;;;38.63;26.63;;;;;;;12.00;100.00;101150.59;6097140;23;20006;-80
2022/09/24 04:05:17;;;;;;;38.50;27.33;;;;;;;12.02;100.00;101148.72;6097099;23;20013;-79
2022/09/24 04:07:43;;;;;;;36.78;26.45;;;;;;;11.96;100.00;101142.16;6096821;23;20041;-80
2022/09/24 04:10:09;;;;;;;38.28;27.00;;;;;;;11.96;100.00;101141.34;6096980;23;19995;-78
2022/09/24 04:12:34;;;;;;;36.60;27.52;;;;;;;11.88;100.00;101126.28;6097158;23;20788;-78
2022/09/24 04:15:01;;;;;;;40.22;27.77;;;;;;;11.98;100.00;101134.31;6096769;23;20006;-79
2022/09/24 04:17:30;;;;;;;40.05;29.08;;;;;;;11.98;100.00;101142.06;6096959;23;20002;-79
2022/09/24 04:19:56;;;;;;;40.78;28.85;;;;;;;11.91;100.00;101128.72;6097002;23;20006;-81
2022/09/24 04:22:21;;;;;;;40.90;28.73;;;;;;;11.99;100.00;101136.78;6097150;23;20007;-79
2022/09/24 04:24:46;;;;;;;38.97;27.60;;;;;;;11.95;100.00;101126.75;6070784;23;20033;-78
2022/09/24 04:27:12;;;;;;;43.92;28.73;;;;;;;12.01;100.00;101132.38;6097169;23;20002;-81
2022/09/24 04:29:37;;;;;;;40.35;28.63;;;;;;;11.95;100.00;101124.16;6096922;23;20149;-78
2022/09/24 04:32:02;;;;;;;37.53;27.23;;;;;;;12.01;100.00;101127.19;6097228;23;20046;-80
2022/09/24 04:34:28;;;;;;;38.97;28.17;;;;;;;12.01;100.00;101129.78;6096612;23;20176;-76
2022/09/24 04:36:53;;;;;;;37.83;26.08;;;;;;;12.01;100.00;101132.38;6096796;23;20003;-77
2022/09/24 04:39:21;;;;;;;37.30;26.23;;;;;;;12.00;100.00;101128.13;6071337;23;20053;-80
2022/09/24 04:41:46;;;;;;;36.63;26.90;;;;;;;11.95;100.00;101122.41;6096783;23;20077;-76
2022/09/24 04:44:12;;;;;;;39.22;27.48;;;;;;;11.85;100.00;101107.56;6070792;23;20045;-77
2022/09/24 04:46:38;;;;;;;37.55;25.92;;;;;;;11.87;100.00;101113.47;6096881;23;20009;-81
2022/09/24 04:49:04;;;;;;;37.55;25.70;;;;;;;11.85;100.00;101099.78;6096440;23;20021;-78
2022/09/24 04:51:34;;;;;;;38.20;27.95;;;;;;;11.87;100.00;101113.47;6097124;23;20002;-80
2022/09/24 04:54:01;;;;;;;37.92;26.95;;;;;;;11.96;100.00;101125.81;6096567;23;20006;-79
2022/09/24 04:56:27;;;;;;;39.03;26.98;;;;;;;11.89;100.00;101114.19;6096890;23;20331;-79
2022/09/24 04:58:53;;;;;;;35.75;25.50;;;;;;;11.96;100.00;101123.22;6096445;23;20441;-79
2022/09/24 05:01:19;;;;;;;35.10;26.27;;;;;;;11.81;100.00;101090.59;6096332;23;20041;-80
2022/09/24 05:03:45;;;;;;;37.70;26.60;;;;;;;11.93;100.00;101120.84;6096482;23;20014;-77
2022/09/24 05:06:10;;;;;;;36.80;26.75;;;;;;;11.81;100.00;101098.34;6096635;23;20002;-79
2022/09/24 05:08:35;;;;;;;38.47;25.23;;;;;;;11.90;100.00;101118.47;6096888;23;20298;-80
2022/09/24 05:11:01;;;;;;;35.47;25.63;;;;;;;11.76;100.00;101091.66;6096612;23;20013;-80
2022/09/24 05:13:27;;;;;;;37.53;25.92;;;;;;;11.95;100.00;101127.56;6098606;23;20003;-79
2022/09/24 05:15:52;;;;;;;34.25;25.13;;;;;;;11.96;100.00;101125.81;6098351;23;20006;-79
2022/09/24 05:18:18;;;;;;;33.88;23.52;;;;;;;11.95;100.00;101124.16;6098999;23;20409;-81
2022/09/24 05:20:43;;;;;;;32.95;23.58;;;;;;;11.96;100.00;101129.22;6098597;23;20006;-77
2022/09/24 05:23:08;;;;;;;33.60;23.95;;;;;;;11.95;100.00;101134.50;6098861;23;20006;-78
2022/09/24 05:27:07;;;;;;;31.80;23.20;;;;;;;11.85;100.00;101118.75;6098476;23;20029;-78
2022/09/24 05:28:20;;;;;;;32.08;23.63;;;;;;;11.89;100.00;101121.94;6098490;23;20078;-82
2022/09/24 05:30:46;;;;;;;32.67;24.00;;;;;;;11.88;100.00;101120.28;6098286;23;20002;-82
2022/09/24 05:33:11;;;;;;;32.80;23.48;;;;;;;11.95;100.00;101137.94;6098517;23;20010;-80
2022/09/24 05:35:37;;;;;;;34.10;24.45;;;;;;;11.96;100.00;101137.00;6098543;23;20089;-81
2022/09/24 05:38:02;;;;;;;35.45;23.45;;;;;;;11.97;100.00;101133.47;6098384;23;20086;-82
2022/09/24 05:43:11;;;;;;;30.77;22.67;;;;;;;11.88;100.00;101117.69;6098486;23;20117;-81
2022/09/24 05:45:37;;;;;;;31.77;21.88;;;;;;;12.00;100.00;101135.06;6098312;23;20025;-82
2022/09/24 05:48:02;;;;;;;29.55;20.63;;;;;;;12.01;100.00;101142.72;6071626;23;20116;-79
2022/09/24 05:50:28;;;;;;;30.88;20.92;;;;;;;12.02;100.00;101140.97;6098432;23;20007;-78
2022/09/24 05:52:53;;;;;;;29.42;21.00;;;;;;;12.02;100.00;101146.13;6098541;23;20006;-84
2022/09/24 05:55:19;;;;;;;29.88;21.05;;;;;;;12.03;100.00;101148.63;6098387;23;20002;-84
2022/09/24 05:57:44;;;;;;;30.30;21.65;;;;;;;12.03;100.00;101153.81;6098048;23;20328;-80
2022/09/24 06:00:10;;;;;;;28.35;20.25;;;;;;;11.92;100.00;101132.97;6098142;23;20049;-82
2022/09/24 06:02:35;;;;;;;27.30;19.02;;;;;;;12.02;100.00;101149.56;6098632;23;20081;-81
2022/09/24 06:05:00;;;;;;;26.27;19.55;;;;;;;12.03;100.00;101145.22;6098453;23;20033;-80
2022/09/24 06:07:26;;;;;;;27.20;19.67;;;;;;;12.04;100.00;101147.69;6098421;23;20376;-79
2022/09/24 06:09:51;;;;;;;25.92;18.42;;;;;;;12.02;100.00;101144.38;6098484;23;20003;-81
2022/09/24 06:12:16;;;;;;;25.65;18.88;;;;;;;12.07;100.00;101144.06;6098229;23;20006;-80
2022/09/24 06:14:42;;;;;;;26.92;19.25;;;;;;;12.07;100.00;101151.84;6098087;23;20014;-81
2022/09/24 06:17:10;;;;;;;27.65;19.27;;;;;;;12.03;100.00;101145.22;6097914;23;20074;-82
2022/09/24 06:19:36;;;;;;;25.45;18.65;;;;;;;12.08;100.00;101158.66;6071941;23;20017;-77
2022/09/24 06:22:01;;;;;;;24.35;17.73;;;;;;;12.08;100.00;101158.66;6096481;23;20038;-79
2022/09/24 06:24:27;;;;;;;26.05;18.08;;;;;;;12.00;100.00;101146.25;6097583;23;20007;-77
2022/09/24 06:26:52;;;;;;;26.40;19.15;;;;;;;12.07;100.00;101163.03;6071949;23;20441;-77
2022/09/24 06:29:17;;;;;;;28.13;19.48;;;;;;;12.06;100.00;101155.34;6072340;23;20166;-79
2022/09/24 06:31:43;;;;;;;25.58;17.90;;;;;;;12.10;100.00;101156.00;6097429;23;20006;-81
2022/09/24 06:34:09;;;;;;;25.88;18.67;;;;;;;12.02;100.00;101152.16;6097829;23;20450;-80
2022/09/24 06:36:34;;;;;;;25.92;19.08;;;;;;;12.03;100.00;101158.97;6097744;23;20034;-82
2022/09/24 06:39:00;;;;;;;25.85;19.02;;;;;;;12.02;100.00;101156.50;6097645;23;20006;-81
2022/09/24 06:41:25;;;;;;;24.00;18.42;;;;;;;12.09;100.00;101169.84;6097477;23;20082;-79
2022/09/24 06:43:53;;;;;;;26.63;18.55;;;;;;;11.99;100.00;101151.50;6098018;23;20002;-82
2022/09/24 06:46:18;;;;;;;25.83;19.30;;;;;;;12.12;100.00;101167.09;6097914;23;20028;-79
2022/09/24 06:48:44;;;;;;;28.23;18.70;;;;;;;12.12;100.00;101178.28;6097322;23;20015;-81
2022/09/24 06:51:09;;;;;;;26.85;18.95;;;;;;;11.99;100.00;101154.06;6098260;23;20007;-80
2022/09/24 06:53:34;;;;;;;24.67;18.45;;;;;;;12.09;100.00;101170.69;6097833;23;20018;-79
2022/09/24 06:56:02;;;;;;;25.33;18.48;;;;;;;12.16;100.00;101177.13;6097655;23;20048;-81
2022/09/24 06:58:28;;;;;;;25.13;17.70;;;;;;;12.02;100.00;101165.09;6097949;23;20033;-74
2022/09/24 07:00:58;;;;;;;25.92;18.30;;;;;;;12.15;100.00;101180.66;6098096;23;20002;-80
2022/09/24 07:03:25;;;;;;;25.75;17.83;;;;;;;12.03;100.00;101155.56;6097957;23;20341;-80
2022/09/24 07:05:50;;;;;;;26.15;18.58;;;;;;;12.05;100.00;101158.88;6098189;23;20010;-80
2022/09/24 07:08:16;;;;;;;24.60;18.42;;;;;;;12.20;100.00;101183.81;6097969;23;20006;-76
2022/09/24 07:10:43;;;;;;;26.10;18.67;;;;;;;12.17;100.00;101173.63;6097754;23;20077;-78
2022/09/24 07:13:11;;;;;;;24.30;17.58;;;;;;;12.18;100.00;101172.69;6097923;23;20010;-78
2022/09/24 07:15:36;;;;;;;24.45;17.40;;;;;;;12.16;100.00;101171.97;6097627;23;20006;-79
2022/09/24 07:18:01;;;;;;;24.48;18.42;;;;;;;12.29;100.00;101188.38;6097662;23;20009;-77
2022/09/24 07:20:27;;;;;;;22.77;17.60;;;;;;;12.30;100.00;101187.47;6097952;23;20003;-80
2022/09/24 07:22:53;;;;;;;24.25;18.02;;;;;;;12.32;100.00;101188.19;6097535;23;20429;-79
2022/09/24 07:25:18;;;;;;;22.73;16.55;;;;;;;12.36;100.00;101196.56;6097513;23;20425;-76
2022/09/24 07:27:44;;;;;;;24.17;17.42;;;;;;;12.39;100.00;101193.81;6097876;23;20010;-80
2022/09/24 07:30:11;;;;;;;22.17;17.48;;;;;;;12.36;100.00;101183.63;6097843;23;20002;-77
2022/09/24 07:32:37;;;;;;;23.95;17.60;;;;;;;12.44;100.00;101196.91;6097542;23;20006;-79
2022/09/24 07:35:02;;;;;;;21.73;16.42;;;;;;;12.46;100.00;101196.81;6097529;23;20370;-77
2022/09/24 07:37:28;;;;;;;21.65;16.30;;;;;;;12.42;100.00;101191.00;6071618;23;20381;-77
2022/09/24 07:39:53;;;;;;;24.27;16.90;;;;;;;12.46;100.00;101204.59;6071253;23;20033;-80
2022/09/24 07:42:20;;;;;;;23.08;17.02;;;;;;;12.50;100.00;101204.31;6097322;23;20421;-77
2022/09/24 07:44:46;;;;;;;22.80;17.67;;;;;;;12.49;100.00;101200.06;6097536;23;20006;-76
2022/09/24 07:47:12;;;;;;;23.08;17.40;;;;;;;12.49;100.00;101200.06;6097166;23;20006;-76
2022/09/24 07:49:38;;;;;;;22.88;16.80;;;;;;;12.38;100.00;101191.28;6097083;23;20021;-78
2022/09/24 07:52:03;;;;;;;23.95;17.77;;;;;;;12.52;100.00;101211.97;6071124;23;20041;-80
2022/09/24 07:54:29;;;;;;;22.52;17.15;;;;;;;12.40;100.00;101189.47;6071257;23;20021;-79
2022/09/24 07:56:55;;;;;;;24.15;17.65;;;;;;;12.41;100.00;101183.34;6097204;23;20499;-77
2022/09/24 07:59:20;;;;;;;21.80;16.50;;;;;;;12.52;100.00;101211.97;6097354;23;20009;-80
2022/09/24 08:01:45;;;;;;;25.52;18.30;;;;;;;12.58;100.00;101217.56;6097318;23;20087;-79
2022/09/24 08:04:11;;;;;;;23.27;16.90;;;;;;;12.55;100.00;101214.34;6096801;23;20017;-78
2022/09/24 08:06:36;;;;;;;24.17;17.63;;;;;;;12.51;100.00;101200.78;6097299;23;20002;-78
2022/09/24 08:09:03;;;;;;;22.48;17.23;;;;;;;12.62;100.00;101218.22;6097188;23;20057;-78
2022/09/24 08:11:28;;;;;;;25.83;18.33;;;;;;;12.51;100.00;101193.00;6097099;23;19999;-79
2022/09/24 08:13:55;;;;;;;23.73;18.33;;;;;;;12.61;100.00;101190.66;6097371;23;20333;-80
2022/09/24 08:16:20;;;;;;;24.80;18.92;;;;;;;12.86;100.00;101223.53;6097300;23;20053;-77
2022/09/24 08:18:46;;;;;;;22.92;17.92;;;;;;;12.80;100.00;101222.19;6096771;23;20002;-80
2022/09/24 08:21:14;;;;;;;24.45;18.48;;;;;;;12.74;100.00;101232.94;6097092;23;20065;-81
2022/09/24 08:23:40;;;;;;;23.80;17.75;;;;;;;12.65;100.00;101220.59;6095833;23;20006;-76
2022/09/24 08:26:06;;;;;;;27.77;19.52;;;;;;;12.77;100.00;101232.75;6097505;23;20302;-80
2022/09/24 08:28:31;;;;;;;27.77;19.17;;;;;;;12.63;100.00;101207.75;6096797;23;20074;-77
2022/09/24 08:31:01;;;;;;;26.75;18.73;;;;;;;12.67;100.00;101213.53;6096887;23;20026;-76
2022/09/24 08:33:27;;;;;;;23.60;18.83;;;;;;;12.76;100.00;101218.13;6096482;23;20007;-78
2022/09/24 08:35:53;;;;;;;24.40;19.30;;;;;;;12.89;100.00;101238.91;6070492;23;20081;-77
2022/09/24 08:38:21;;;;;;;27.48;20.20;;;;;;;12.90;100.00;101227.59;6097228;23;20432;-77
2022/09/24 08:41:08;;;;;;;24.63;19.50;;;;;;;13.09;100.00;101241.00;6096453;23;20006;-77
2022/09/24 08:43:57;;;;;;;26.63;19.45;;;;;;;13.00;100.00;101222.63;6096854;23;20006;-79
2022/09/24 08:49:21;;;;;;;;;;;;;;;13.23;100.00;101249.63;6097621;23;20060;-81
2022/09/24 08:52:15;;;;;;;26.15;19.95;;;;;;;13.21;100.00;101247.16;6097050;23;19937;-77
2022/09/24 08:54:42;;;;;;;24.77;20.17;;;;;;;13.09;100.00;101230.63;5980454;24;20064;-72
2022/09/24 08:57:14;;;;;;;27.00;19.88;;;;;;;13.18;100.00;101250.75;5980653;24;20008;-76
2022/09/24 08:59:43;;;;;;;24.27;19.20;;;;;;;13.08;100.00;101236.75;5980671;24;20036;-80
2022/09/24 09:02:14;;;;;;;26.52;20.25;;;;;;;13.18;100.00;101247.34;5980386;24;20320;-79
2022/09/24 09:04:57;;;;;;;25.13;19.95;;;;;;;13.18;100.00;101249.94;5980265;24;20379;-80
2022/09/24 09:07:31;;;;;;;24.67;18.88;;;;;;;13.17;100.00;101258.63;5980666;24;20063;-79
2022/09/24 09:10:16;;;;;;;24.35;19.17;;;;;;;13.13;100.00;101237.25;5980530;24;20035;-78
2022/09/24 09:12:57;;;;;;;25.50;18.73;;;;;;;13.14;100.00;101257.06;5980272;24;20013;-78
2022/09/24 09:15:23;;;;;;;24.55;19.48;;;;;;;13.08;100.00;101264.44;5980347;24;20008;-80
2022/09/24 09:18:03;;;;;;;24.50;18.95;;;;;;;13.07;100.00;101262.75;5980590;24;20019;-76
2022/09/24 09:20:34;;;;;;;23.73;18.23;;;;;;;12.92;100.00;101239.50;5980212;24;20012;-81
2022/09/24 09:23:06;;;;;;;24.70;17.98;;;;;;;13.12;100.00;101271.06;5980319;24;20099;-79
2022/09/24 09:25:35;;;;;;;24.35;18.02;;;;;;;13.14;100.00;101270.03;5980556;24;20033;-77
2022/09/24 09:28:06;;;;;;;23.00;18.42;;;;;;;13.17;100.00;101269.84;5980525;24;20053;-80
2022/09/24 09:30:42;;;;;;;24.48;17.92;;;;;;;13.16;100.00;101256.94;5988180;23;20021;-81
2022/09/24 09:33:28;;;;;;;23.50;18.30;;;;;;;13.28;100.00;101265.72;6096763;23;20117;-77
2022/09/24 09:36:20;;;;;;;26.92;19.02;;;;;;;13.31;100.00;101258.56;6096993;23;20010;-79
2022/09/24 09:39:04;;;;;;;26.63;18.77;;;;;;;13.55;100.00;101268.19;5980275;24;20047;-82
2022/09/24 09:41:49;;;;;;;23.85;18.27;;;;;;;13.69;100.00;101266.31;5980383;24;20036;-78
2022/09/24 09:44:24;;;;;;;23.45;18.30;;;;;;;13.74;100.00;101258.22;5980098;24;20418;-77
2022/09/24 09:46:59;;;;;;;23.17;17.35;;;;;;;13.74;100.00;101245.22;5980386;24;20036;-79
2022/09/24 09:49:30;;;;;;;25.17;19.13;;;;;;;14.00;100.00;101259.00;6008003;23;20414;-80
2022/09/24 09:51:57;;;;;;;22.63;17.65;;;;;;;14.15;100.00;101272.66;6008456;23;20199;-79
2022/09/24 09:54:35;;;;;;;24.90;17.50;;;;;;;14.17;100.00;101256.03;6008446;23;20110;-76
2022/09/24 09:57:02;;;;;;;22.48;17.33;;;;;;;14.06;99.80;101236.03;6008282;23;20008;-78
2022/09/24 09:59:29;;;;;;;22.40;18.20;;;;;;;14.28;99.08;101269.09;6009289;23;20023;-79
2022/09/24 10:01:56;;;;;;;24.50;18.38;;;;;;;14.32;100.00;101273.13;6010219;23;20007;-80
2022/09/24 10:04:39;;;;;;;22.83;18.73;;;;;;;14.33;99.03;101263.56;6009895;23;20008;-79
2022/09/24 10:07:14;;;;;;;23.83;17.95;;;;;;;14.47;98.76;101273.84;6009985;23;20071;-78
2022/09/24 10:09:42;;;;;;;22.80;17.52;;;;;;;14.50;98.64;101258.00;6010193;23;20008;-81
2022/09/24 10:12:07;;;;;;;22.60;17.33;;;;;;;14.64;98.01;101273.41;6010020;23;20430;-79
2022/09/24 10:14:33;;;;;;;22.20;18.38;;;;;;;14.71;97.18;101266.00;6010445;23;20012;-81
2022/09/24 10:17:04;;;;;;;24.60;18.00;;;;;;;14.85;96.45;101272.81;6098250;23;20007;-81
2022/09/24 10:19:33;;;;;;;23.20;17.40;;;;;;;14.86;96.45;101269.25;6098156;23;20413;-80
2022/09/24 10:22:08;;;;;;;24.35;17.98;;;;;;;14.87;95.93;101274.34;6098348;23;20010;-80
2022/09/24 10:24:35;;;;;;;25.23;19.02;;;;;;;14.72;96.31;101246.03;6098043;23;19998;-81
2022/09/24 10:27:10;;;;;;;22.42;17.77;;;;;;;14.78;95.87;101271.59;6098360;23;20081;-81
2022/09/24 10:32:25;;;;;;;23.98;18.67;;;;;;;14.65;97.26;101261.28;6098170;23;20077;-79
2022/09/24 10:34:55;;;;;;;24.13;19.52;;;;;;;14.75;97.02;101269.19;6098141;23;20010;-79
2022/09/24 10:37:20;;;;;;;24.23;18.55;;;;;;;14.61;96.77;101242.47;6098446;23;20090;-81
2022/09/24 10:39:58;;;;;;;24.85;18.92;;;;;;;14.85;96.65;101267.63;6097879;23;20030;-81
2022/09/24 10:42:26;;;;;;;23.17;17.50;;;;;;;14.79;95.48;101257.66;6097826;23;20006;-76
2022/09/24 10:44:53;;;;;;;23.45;18.50;;;;;;;14.74;95.02;101244.97;6097658;23;20013;-77
2022/09/24 10:47:30;;;;;;;25.20;18.67;;;;;;;14.88;95.01;101277.78;6098433;23;20330;-77
2022/09/24 10:50:14;;;;;;;21.73;17.52;;;;;;;14.92;95.56;101274.00;6098091;23;20041;-79
2022/09/24 10:52:43;;;;;;;24.52;19.25;;;;;;;14.94;94.39;101277.31;6098003;23;20093;-77
2022/09/24 10:55:26;;;;;;;23.08;19.00;;;;;;;15.11;95.43;101274.28;6098069;23;20010;-80
2022/09/24 10:58:15;;;;;;;24.55;18.67;;;;;;;15.32;94.64;101244.97;6098040;23;20030;-79
2022/09/24 11:00:53;;;;;;;22.58;18.23;;;;;;;15.50;92.68;101269.59;6097997;23;20007;-81
2022/09/24 11:03:41;;;;;;;22.23;18.25;;;;;;;15.37;92.13;101268.91;6097804;23;20093;-78
2022/09/24 11:06:56;;;;;;;23.27;17.60;;;;;;;15.35;92.75;101276.84;6097693;23;20382;-77
2022/09/24 11:10:00;;;;;;;22.98;17.33;;;;;;;15.39;93.08;101256.59;5981109;24;20459;-77
2022/09/24 11:12:38;;;;;;;21.95;17.35;;;;;;;15.47;91.07;101278.50;5981252;23;20012;-80
2022/09/24 11:15:18;;;;;;;21.70;17.58;;;;;;;15.38;90.00;101280.97;5981330;24;20015;-76
2022/09/24 11:17:56;;;;;;;20.40;16.02;;;;;;;15.27;91.40;101271.38;5981497;24;20064;-76
2022/09/24 11:20:25;;;;;;;21.58;17.25;;;;;;;15.44;90.51;101281.34;5981072;24;20015;-77
2022/09/24 11:23:09;;;;;;;23.80;16.75;;;;;;;15.40;90.51;101253.88;5981071;24;20175;-80